Palmhurst, Texas
Current Conditions -  °F | °C
As of 8:53 PM on Sunday 23 Nov 2014 (Local Time) from KMFE Reporting Station
Clear Clear  
Wind Chill: 64°   Ceiling: Unl
Heat Index: 64°   Visibility: 10mi
Dew Point: 58°   Wind: 3mph
Humidity: 80%   Direction: 140°SE
Pressure: 29.71"   Gusts: NA
Location:  26.2155°N, 98.325°W
Report Text: KMFE 240253Z 14003KT 10SM CLR 18/14 A2971 RMK AO2 SLP059 T01780144 53024
Loading
Personal Weather Stations






























Interactive Weather Map New forecast layout! Learn more

10-Day Weather Forecast

Advertisements
Track Severe Weather on mobile